Nieuw Milligen, Netherlands
Current Conditions -  °F | °C
As of 1:25 AM on Thursday 29 Jan 2015 (Local Time) from EHDL Reporting Station
Few Clouds Few Clouds  
Wind Chill: 28°   Ceiling: Unl
Heat Index: 36°   Visibility: 6mi
Dew Point: 28°   Wind: 12mph
Humidity: 75%   Direction: 230°SW
Pressure: 29.35"   Gusts: NA
Location:  52.22°N, 5.79°E
Report Text: EHDL 290025Z AUTO 23010KT 9999 FEW037 02/M02 Q0994 BLU
Loading
Personal Weather Stations






























Interactive Weather Map New forecast layout! Learn more

10-Day Weather Forecast

Advertisements
Track Severe Weather on mobile